createdAt,value
2022-12-29T00:00:22.133Z,100.00
2022-12-29T00:02:52.805Z,100.00
2022-12-29T00:05:19.824Z,100.00
2022-12-29T00:07:46.722Z,100.00
2022-12-29T00:10:16.652Z,100.00
2022-12-29T00:13:02.109Z,100.00
2022-12-29T00:15:38.120Z,100.00
2022-12-29T00:18:05.266Z,100.00
2022-12-29T00:20:54.095Z,100.00
2022-12-29T00:23:47.967Z,100.00
2022-12-29T00:26:36.099Z,100.00
2022-12-29T00:29:22.491Z,100.00
2022-12-29T00:32:08.686Z,100.00
2022-12-29T00:34:54.653Z,100.00
2022-12-29T00:37:42.291Z,100.00
2022-12-29T00:40:28.350Z,100.00
2022-12-29T00:43:14.349Z,100.00
2022-12-29T00:45:44.630Z,100.00
2022-12-29T00:48:11.421Z,100.00
2022-12-29T00:50:38.949Z,100.00
2022-12-29T00:53:05.839Z,100.00
2022-12-29T00:55:37.781Z,100.00
2022-12-29T00:58:04.687Z,100.00
2022-12-29T01:00:32.251Z,100.00
2022-12-29T01:02:59.320Z,100.00
2022-12-29T01:05:26.374Z,100.00
2022-12-29T01:07:53.269Z,100.00
2022-12-29T01:10:20.067Z,100.00
2022-12-29T01:12:48.481Z,100.00
2022-12-29T01:15:15.926Z,100.00
2022-12-29T01:17:43.209Z,100.00
2022-12-29T01:20:11.821Z,100.00
2022-12-29T01:22:39.096Z,100.00
2022-12-29T01:25:07.314Z,100.00
2022-12-29T01:27:34.977Z,100.00
2022-12-29T01:30:01.856Z,100.00
2022-12-29T01:32:28.743Z,100.00
2022-12-29T01:34:55.651Z,100.00
2022-12-29T01:37:22.638Z,100.00
2022-12-29T01:39:49.487Z,100.00
2022-12-29T01:42:18.985Z,100.00
2022-12-29T01:44:58.107Z,100.00
2022-12-29T01:47:51.439Z,100.00
2022-12-29T01:50:25.398Z,100.00
2022-12-29T01:53:09.050Z,100.00
2022-12-29T01:55:43.457Z,100.00
2022-12-29T01:58:12.323Z,100.00
2022-12-29T02:00:39.405Z,100.00
2022-12-29T02:03:07.999Z,100.00
2022-12-29T02:05:43.207Z,100.00
2022-12-29T02:08:14.474Z,100.00
2022-12-29T02:10:43.229Z,100.00
2022-12-29T02:13:10.387Z,100.00
2022-12-29T02:16:03.052Z,100.00
2022-12-29T02:19:14.301Z,100.00
2022-12-29T02:21:56.349Z,100.00
2022-12-29T02:24:41.286Z,100.00
2022-12-29T02:27:12.256Z,100.00
2022-12-29T02:30:06.460Z,100.00
2022-12-29T02:32:51.435Z,100.00
2022-12-29T02:35:31.961Z,100.00
2022-12-29T02:38:20.639Z,100.00
2022-12-29T02:40:59.283Z,100.00
2022-12-29T02:43:35.861Z,100.00
2022-12-29T02:46:15.813Z,100.00
2022-12-29T02:49:16.784Z,100.00
2022-12-29T02:51:58.284Z,100.00
2022-12-29T02:54:43.964Z,100.00
2022-12-29T02:57:21.304Z,100.00
2022-12-29T02:59:53.403Z,100.00
2022-12-29T03:02:31.260Z,100.00
2022-12-29T03:05:20.767Z,100.00
2022-12-29T03:08:03.071Z,100.00
2022-12-29T03:10:54.661Z,100.00
2022-12-29T03:13:57.007Z,100.00
2022-12-29T03:16:36.492Z,100.00
2022-12-29T03:19:06.324Z,100.00
2022-12-29T03:22:03.724Z,100.00
2022-12-29T03:24:44.637Z,100.00
2022-12-29T03:27:17.898Z,100.00
2022-12-29T03:29:55.675Z,100.00
2022-12-29T03:32:27.044Z,100.00
2022-12-29T03:34:55.968Z,100.00
2022-12-29T03:37:27.645Z,100.00
2022-12-29T03:39:54.638Z,100.00
2022-12-29T03:42:26.240Z,100.00
2022-12-29T03:44:57.392Z,100.00
2022-12-29T03:47:25.689Z,100.00
2022-12-29T03:49:53.254Z,100.00
2022-12-29T03:52:20.412Z,100.00
2022-12-29T03:54:48.132Z,100.00
2022-12-29T03:57:15.072Z,100.00
2022-12-29T03:59:50.478Z,100.00
2022-12-29T04:02:18.180Z,100.00
2022-12-29T04:04:45.599Z,100.00
2022-12-29T04:07:12.546Z,100.00
2022-12-29T04:09:40.798Z,100.00
2022-12-29T04:12:10.061Z,100.00
2022-12-29T04:14:37.003Z,100.00
2022-12-29T04:17:03.824Z,100.00
2022-12-29T04:19:31.340Z,100.00
2022-12-29T04:21:58.007Z,100.00
2022-12-29T04:24:25.045Z,100.00
2022-12-29T04:26:52.078Z,100.00
2022-12-29T04:29:44.634Z,100.00
2022-12-29T04:32:29.856Z,100.00
2022-12-29T04:34:57.272Z,100.00
2022-12-29T04:37:24.666Z,100.00
2022-12-29T04:39:51.529Z,100.00
2022-12-29T04:42:18.481Z,100.00
2022-12-29T04:44:46.094Z,100.00
2022-12-29T04:47:18.842Z,100.00
2022-12-29T04:49:59.967Z,100.00
2022-12-29T04:52:59.352Z,100.00
2022-12-29T04:55:26.994Z,100.00
2022-12-29T04:57:54.033Z,100.00
2022-12-29T05:00:21.068Z,100.00
2022-12-29T05:02:50.717Z,100.00
2022-12-29T05:05:18.011Z,100.00
2022-12-29T05:07:48.519Z,100.00
2022-12-29T05:10:15.493Z,100.00
2022-12-29T05:12:42.562Z,100.00
2022-12-29T05:15:10.629Z,100.00
2022-12-29T05:17:38.509Z,100.00
2022-12-29T05:20:08.821Z,100.00
2022-12-29T05:22:36.477Z,100.00
2022-12-29T05:25:05.300Z,100.00
2022-12-29T05:27:38.092Z,100.00
2022-12-29T05:30:28.510Z,100.00
2022-12-29T05:32:55.855Z,100.00
2022-12-29T05:35:23.745Z,100.00
2022-12-29T05:37:51.628Z,100.00
2022-12-29T05:40:19.292Z,100.00
2022-12-29T05:42:46.414Z,100.00
2022-12-29T05:45:33.794Z,100.00
2022-12-29T05:48:26.009Z,100.00
2022-12-29T05:51:15.974Z,100.00
2022-12-29T05:53:48.257Z,100.00
2022-12-29T05:56:16.805Z,100.00
2022-12-29T05:58:46.651Z,100.00
2022-12-29T06:01:13.607Z,100.00
2022-12-29T06:03:47.699Z,100.00
2022-12-29T06:06:15.438Z,100.00
2022-12-29T06:08:43.001Z,100.00
2022-12-29T06:11:10.381Z,100.00
2022-12-29T06:13:38.839Z,100.00
2022-12-29T06:16:06.194Z,100.00
2022-12-29T06:18:33.612Z,100.00
2022-12-29T06:21:05.858Z,100.00
2022-12-29T06:23:33.521Z,100.00
2022-12-29T06:26:00.826Z,100.00
2022-12-29T06:28:28.199Z,100.00
2022-12-29T06:30:55.138Z,100.00
2022-12-29T06:33:22.523Z,100.00
2022-12-29T06:35:49.342Z,100.00
2022-12-29T06:38:16.677Z,100.00
2022-12-29T06:40:46.393Z,100.00
2022-12-29T06:43:33.404Z,100.00
2022-12-29T06:46:23.011Z,100.00
2022-12-29T06:48:50.547Z,100.00
2022-12-29T06:51:17.322Z,100.00
2022-12-29T06:53:44.846Z,100.00
2022-12-29T06:56:11.649Z,100.00
2022-12-29T06:58:38.845Z,100.00
2022-12-29T07:01:06.402Z,100.00
2022-12-29T07:03:33.760Z,100.00
2022-12-29T07:06:00.935Z,100.00
2022-12-29T07:08:28.286Z,100.00
2022-12-29T07:10:55.165Z,100.00
2022-12-29T07:13:22.219Z,100.00
2022-12-29T07:15:49.078Z,100.00
2022-12-29T07:18:16.166Z,100.00
2022-12-29T07:20:44.097Z,100.00
2022-12-29T07:23:12.013Z,100.00
2022-12-29T07:25:38.955Z,100.00
2022-12-29T07:28:06.135Z,100.00
2022-12-29T07:30:33.436Z,100.00
2022-12-29T07:33:01.371Z,100.00
2022-12-29T07:35:28.194Z,100.00
2022-12-29T07:37:55.486Z,100.00
2022-12-29T07:40:22.333Z,100.00
2022-12-29T07:42:49.555Z,100.00
2022-12-29T07:45:17.608Z,100.00
2022-12-29T07:47:50.599Z,100.00
2022-12-29T07:50:17.701Z,100.00
2022-12-29T07:52:46.031Z,100.00
2022-12-29T07:55:13.159Z,100.00
2022-12-29T07:57:39.938Z,100.00
2022-12-29T08:00:08.315Z,100.00
2022-12-29T08:02:38.962Z,100.00
2022-12-29T08:05:06.933Z,100.00
2022-12-29T08:07:34.261Z,100.00
2022-12-29T08:10:02.528Z,100.00
2022-12-29T08:12:29.538Z,100.00
2022-12-29T08:14:57.049Z,100.00
2022-12-29T08:17:24.039Z,100.00
2022-12-29T08:19:51.219Z,100.00
2022-12-29T08:22:18.227Z,100.00
2022-12-29T08:24:45.278Z,100.00
2022-12-29T08:27:17.982Z,100.00
2022-12-29T08:29:47.893Z,100.00
2022-12-29T08:32:14.816Z,100.00
2022-12-29T08:34:42.218Z,100.00
2022-12-29T08:37:09.228Z,100.00
2022-12-29T08:39:36.463Z,100.00
2022-12-29T08:42:03.333Z,100.00
2022-12-29T08:44:30.898Z,100.00
2022-12-29T08:46:57.726Z,100.00
2022-12-29T08:49:24.784Z,100.00
2022-12-29T08:51:51.735Z,100.00
2022-12-29T08:54:19.286Z,100.00
2022-12-29T08:56:46.197Z,100.00
2022-12-29T08:59:15.858Z,100.00
2022-12-29T09:01:43.881Z,100.00
2022-12-29T09:04:16.507Z,100.00
2022-12-29T09:06:46.324Z,100.00
2022-12-29T09:09:13.674Z,100.00
2022-12-29T09:11:40.965Z,100.00
2022-12-29T09:14:08.057Z,100.00
2022-12-29T09:16:36.210Z,100.00
2022-12-29T09:19:03.945Z,100.00
2022-12-29T09:21:32.060Z,100.00
2022-12-29T09:23:59.305Z,100.00
2022-12-29T09:26:26.361Z,100.00
2022-12-29T09:28:53.830Z,100.00
2022-12-29T09:31:21.081Z,100.00
2022-12-29T09:33:47.915Z,100.00
2022-12-29T09:36:15.898Z,100.00
2022-12-29T09:38:43.147Z,100.00
2022-12-29T09:41:31.153Z,100.00
2022-12-29T09:44:10.283Z,100.00
2022-12-29T09:46:44.893Z,100.00
2022-12-29T09:49:27.269Z,100.00
2022-12-29T09:51:58.880Z,100.00
2022-12-29T09:54:40.600Z,100.00
2022-12-29T09:57:28.168Z,100.00
2022-12-29T10:00:05.498Z,100.00
2022-12-29T10:02:47.888Z,100.00
2022-12-29T10:05:27.683Z,100.00
2022-12-29T10:08:17.260Z,100.00
2022-12-29T10:10:51.948Z,100.00
2022-12-29T10:13:28.539Z,100.00
2022-12-29T10:16:19.234Z,100.00
2022-12-29T10:19:12.239Z,100.00
2022-12-29T10:21:54.908Z,100.00
2022-12-29T10:24:23.654Z,100.00
2022-12-29T10:26:52.798Z,100.00
2022-12-29T10:29:23.063Z,100.00
2022-12-29T10:31:58.965Z,100.00
2022-12-29T10:34:34.550Z,100.00
2022-12-29T10:37:19.174Z,100.00
2022-12-29T10:39:56.447Z,100.00
2022-12-29T10:42:37.943Z,100.00
2022-12-29T10:45:06.741Z,100.00
2022-12-29T10:47:44.058Z,100.00
2022-12-29T10:50:14.391Z,100.00
2022-12-29T10:52:42.192Z,100.00
2022-12-29T10:55:16.755Z,100.00
2022-12-29T10:57:46.541Z,100.00
2022-12-29T11:00:14.741Z,100.00
2022-12-29T11:02:55.923Z,100.00
2022-12-29T11:05:54.331Z,100.00
2022-12-29T11:08:27.659Z,100.00
2022-12-29T11:11:09.871Z,100.00
2022-12-29T11:13:50.455Z,100.00
2022-12-29T11:16:33.169Z,100.00
2022-12-29T11:19:00.214Z,100.00
2022-12-29T11:21:34.874Z,100.00
2022-12-29T11:24:05.049Z,100.00
2022-12-29T11:26:34.666Z,100.00
2022-12-29T11:29:17.272Z,100.00
2022-12-29T11:31:48.663Z,100.00
2022-12-29T11:34:40.794Z,100.00
2022-12-29T11:37:13.387Z,100.00
2022-12-29T11:39:58.001Z,100.00
2022-12-29T11:42:39.305Z,100.00
2022-12-29T11:45:38.317Z,100.00
2022-12-29T11:48:19.729Z,100.00
2022-12-29T11:51:02.295Z,100.00
2022-12-29T11:53:39.835Z,100.00
2022-12-29T11:56:12.089Z,100.00
2022-12-29T11:58:40.158Z,100.00
2022-12-29T12:01:25.359Z,100.00
2022-12-29T12:03:58.351Z,100.00
2022-12-29T12:06:28.034Z,100.00
2022-12-29T12:08:58.001Z,100.00
2022-12-29T12:11:37.691Z,100.00
2022-12-29T12:14:17.755Z,100.00
2022-12-29T12:17:25.042Z,100.00
2022-12-29T12:20:00.939Z,100.00
2022-12-29T12:22:33.836Z,100.00
2022-12-29T12:25:12.160Z,100.00
2022-12-29T12:27:41.828Z,100.00
2022-12-29T12:30:17.019Z,98.25
2022-12-29T12:33:05.138Z,98.44
2022-12-29T12:36:12.409Z,98.38
2022-12-29T12:39:04.801Z,98.86
2022-12-29T12:41:53.169Z,97.94
2022-12-29T12:44:30.171Z,95.90
2022-12-29T12:47:18.326Z,94.36
2022-12-29T12:50:14.889Z,94.19
2022-12-29T12:53:37.199Z,93.20
2022-12-29T12:56:43.153Z,96.30
2022-12-29T13:08:25.304Z,99.35
2022-12-29T13:10:56.766Z,95.67
2022-12-29T13:13:29.643Z,95.83
2022-12-29T13:16:09.564Z,93.66
2022-12-29T13:18:57.183Z,92.54
2022-12-29T13:21:35.991Z,95.72
2022-12-29T13:24:17.151Z,94.46
2022-12-29T13:26:52.341Z,93.70
2022-12-29T13:29:32.432Z,94.51
2022-12-29T13:32:24.351Z,93.23
2022-12-29T13:35:17.776Z,91.33
2022-12-29T13:38:10.451Z,88.99
2022-12-29T13:40:42.883Z,87.40
2022-12-29T13:43:10.468Z,87.94
2022-12-29T13:45:38.286Z,87.04
2022-12-29T13:48:15.454Z,88.79
2022-12-29T13:50:44.819Z,90.46
2022-12-29T13:53:28.910Z,91.18
2022-12-29T13:56:11.038Z,90.33
2022-12-29T13:58:38.106Z,90.02
2022-12-29T14:01:24.206Z,89.76
2022-12-29T14:03:54.255Z,88.02
2022-12-29T14:06:32.407Z,90.67
2022-12-29T14:09:06.043Z,91.71
2022-12-29T14:11:42.314Z,92.78
2022-12-29T14:14:24.662Z,94.07
2022-12-29T14:16:53.261Z,95.09
2022-12-29T14:19:25.309Z,95.02
2022-12-29T14:22:12.185Z,92.17
2022-12-29T14:24:42.575Z,91.90
2022-12-29T14:27:12.386Z,93.76
2022-12-29T14:29:42.241Z,95.73
2022-12-29T14:32:27.356Z,95.19
2022-12-29T14:34:59.152Z,99.22
2022-12-29T14:37:32.321Z,97.97
2022-12-29T14:40:27.939Z,98.66
2022-12-29T14:42:57.098Z,100.00
2022-12-29T14:45:31.116Z,100.00
2022-12-29T14:47:58.324Z,100.00
2022-12-29T14:50:35.904Z,100.00
2022-12-29T14:53:08.220Z,100.00
2022-12-29T14:55:50.958Z,100.00
2022-12-29T14:58:33.477Z,100.00
2022-12-29T15:01:01.658Z,100.00
2022-12-29T15:03:52.185Z,100.00
2022-12-29T15:06:23.367Z,100.00
2022-12-29T15:08:56.856Z,100.00
2022-12-29T15:11:29.616Z,100.00
2022-12-29T15:13:56.539Z,100.00
2022-12-29T15:16:31.454Z,100.00
2022-12-29T15:18:59.480Z,100.00
2022-12-29T15:21:30.208Z,100.00
2022-12-29T15:23:57.515Z,100.00
2022-12-29T15:26:37.152Z,100.00
2022-12-29T15:29:04.049Z,100.00
2022-12-29T15:31:31.234Z,100.00
2022-12-29T15:34:25.699Z,100.00
2022-12-29T15:37:07.846Z,100.00
2022-12-29T15:39:35.625Z,100.00
2022-12-29T15:42:08.720Z,100.00
2022-12-29T15:44:40.031Z,100.00
2022-12-29T15:47:19.429Z,100.00
2022-12-29T15:49:51.485Z,100.00
2022-12-29T15:52:21.489Z,100.00
2022-12-29T15:54:54.329Z,100.00
2022-12-29T15:57:37.157Z,100.00
2022-12-29T16:00:22.390Z,100.00
2022-12-29T16:02:50.375Z,100.00
2022-12-29T16:05:19.688Z,100.00
2022-12-29T16:07:58.881Z,100.00
2022-12-29T16:10:31.506Z,100.00
2022-12-29T16:13:23.278Z,100.00
2022-12-29T16:15:53.394Z,100.00
2022-12-29T16:18:27.229Z,100.00
2022-12-29T16:20:55.709Z,100.00
2022-12-29T16:23:29.657Z,100.00
2022-12-29T16:25:58.987Z,100.00
2022-12-29T16:28:40.065Z,100.00
2022-12-29T16:31:21.406Z,100.00
2022-12-29T16:33:53.553Z,100.00
2022-12-29T16:36:52.921Z,100.00
2022-12-29T16:39:35.868Z,100.00
2022-12-29T16:42:50.532Z,100.00
2022-12-29T16:45:21.154Z,100.00
2022-12-29T16:48:08.450Z,100.00
2022-12-29T16:50:38.011Z,100.00
2022-12-29T16:53:06.516Z,100.00
2022-12-29T16:55:33.738Z,100.00
2022-12-29T16:58:01.340Z,100.00
2022-12-29T17:00:35.396Z,100.00
2022-12-29T17:03:04.577Z,100.00
2022-12-29T17:05:31.509Z,100.00
2022-12-29T17:08:02.027Z,100.00
2022-12-29T17:10:49.383Z,100.00
2022-12-29T17:13:16.237Z,100.00
2022-12-29T17:15:43.201Z,100.00
2022-12-29T17:18:13.850Z,100.00
2022-12-29T17:20:41.327Z,100.00
2022-12-29T17:23:21.141Z,100.00
2022-12-29T17:25:55.029Z,100.00
2022-12-29T17:28:31.367Z,100.00
2022-12-29T17:31:04.184Z,100.00
2022-12-29T17:33:36.405Z,100.00
2022-12-29T17:36:03.333Z,100.00
2022-12-29T17:38:40.177Z,100.00
2022-12-29T17:41:14.471Z,100.00
2022-12-29T17:43:41.409Z,100.00
2022-12-29T17:46:09.129Z,100.00
2022-12-29T17:48:37.100Z,100.00
2022-12-29T17:51:04.424Z,100.00
2022-12-29T17:53:31.521Z,100.00
2022-12-29T17:55:58.769Z,100.00
2022-12-29T17:58:31.396Z,100.00
2022-12-29T18:01:00.354Z,100.00
2022-12-29T18:03:31.139Z,100.00
2022-12-29T18:05:58.828Z,100.00
2022-12-29T18:08:25.683Z,100.00
2022-12-29T18:10:54.261Z,100.00
2022-12-29T18:13:24.389Z,100.00
2022-12-29T18:15:52.907Z,100.00
2022-12-29T18:18:23.035Z,100.00
2022-12-29T18:20:52.586Z,100.00
2022-12-29T18:23:25.210Z,100.00
2022-12-29T18:26:08.501Z,100.00
2022-12-29T18:28:35.978Z,100.00
2022-12-29T18:31:03.046Z,100.00
2022-12-29T18:33:32.311Z,100.00
2022-12-29T18:36:02.133Z,100.00
2022-12-29T18:38:30.005Z,100.00
2022-12-29T18:40:58.441Z,100.00
2022-12-29T18:43:26.017Z,100.00
2022-12-29T18:45:52.912Z,100.00
2022-12-29T18:48:21.155Z,100.00
2022-12-29T18:50:50.015Z,100.00
2022-12-29T18:53:19.596Z,100.00
2022-12-29T18:55:46.552Z,100.00
2022-12-29T18:58:13.663Z,100.00
2022-12-29T19:00:41.369Z,100.00
2022-12-29T19:03:09.963Z,100.00
2022-12-29T19:05:39.205Z,100.00
2022-12-29T19:08:07.620Z,100.00
2022-12-29T19:10:34.903Z,100.00
2022-12-29T19:13:02.407Z,100.00
2022-12-29T19:15:32.244Z,100.00
2022-12-29T19:18:42.009Z,100.00
2022-12-29T19:20:49.981Z,100.00
2022-12-29T19:23:19.646Z,100.00
2022-12-29T19:25:47.352Z,100.00
2022-12-29T19:28:26.854Z,100.00
2022-12-29T19:30:58.386Z,100.00
2022-12-29T19:33:25.789Z,100.00
2022-12-29T19:35:52.895Z,100.00
2022-12-29T19:38:20.194Z,100.00
2022-12-29T19:40:50.942Z,100.00
2022-12-29T19:43:18.141Z,100.00
2022-12-29T19:45:45.954Z,100.00
2022-12-29T19:48:16.201Z,100.00
2022-12-29T19:50:44.103Z,100.00
2022-12-29T19:53:12.012Z,100.00
2022-12-29T19:55:43.507Z,100.00
2022-12-29T19:58:10.641Z,100.00
2022-12-29T20:00:40.242Z,100.00
2022-12-29T20:03:07.410Z,100.00
2022-12-29T20:05:34.407Z,100.00
2022-12-29T20:08:01.243Z,100.00
2022-12-29T20:10:28.169Z,100.00
2022-12-29T20:12:55.043Z,100.00
2022-12-29T20:15:21.989Z,100.00
2022-12-29T20:20:35.747Z,100.00
2022-12-29T20:23:02.614Z,100.00
2022-12-29T20:25:47.297Z,100.00
2022-12-29T20:28:16.140Z,100.00
2022-12-29T20:30:43.372Z,100.00
2022-12-29T20:33:10.734Z,100.00
2022-12-29T20:35:37.935Z,100.00
2022-12-29T20:38:05.433Z,100.00
2022-12-29T20:40:32.491Z,100.00
2022-12-29T20:42:59.391Z,100.00
2022-12-29T20:45:26.541Z,100.00
2022-12-29T20:47:53.596Z,100.00
2022-12-29T20:50:20.585Z,100.00
2022-12-29T20:52:47.518Z,100.00
2022-12-29T20:55:14.995Z,100.00
2022-12-29T20:58:22.084Z,100.00
2022-12-29T21:00:33.264Z,100.00
2022-12-29T21:03:01.128Z,100.00
2022-12-29T21:05:29.146Z,100.00
2022-12-29T21:07:59.903Z,100.00
2022-12-29T21:10:26.917Z,100.00
2022-12-29T21:12:54.569Z,100.00
2022-12-29T21:15:21.964Z,100.00
2022-12-29T21:17:49.211Z,100.00
2022-12-29T21:20:30.400Z,100.00
2022-12-29T21:23:02.216Z,100.00
2022-12-29T21:25:40.053Z,100.00
2022-12-29T21:28:09.222Z,100.00
2022-12-29T21:30:36.402Z,100.00
2022-12-29T21:33:04.786Z,100.00
2022-12-29T21:35:35.893Z,100.00
2022-12-29T21:38:03.096Z,100.00
2022-12-29T21:40:30.378Z,100.00
2022-12-29T21:42:57.477Z,100.00
2022-12-29T21:45:27.683Z,100.00
2022-12-29T21:48:19.555Z,100.00
2022-12-29T21:51:07.793Z,100.00
2022-12-29T21:53:38.564Z,100.00
2022-12-29T21:56:10.838Z,100.00
2022-12-29T21:58:58.092Z,100.00
2022-12-29T22:01:45.259Z,100.00
2022-12-29T22:04:33.639Z,100.00
2022-12-29T22:07:21.161Z,100.00
2022-12-29T22:10:08.083Z,100.00
2022-12-29T22:12:54.425Z,100.00
2022-12-29T22:15:22.228Z,100.00
2022-12-29T22:17:53.106Z,100.00
2022-12-29T22:20:24.598Z,100.00
2022-12-29T22:22:52.381Z,100.00
2022-12-29T22:25:19.869Z,100.00
2022-12-29T22:27:47.559Z,100.00
2022-12-29T22:30:15.372Z,100.00
2022-12-29T22:32:43.401Z,100.00
2022-12-29T22:35:13.702Z,100.00
2022-12-29T22:37:43.443Z,100.00
2022-12-29T22:40:11.944Z,100.00
2022-12-29T22:42:39.874Z,100.00
2022-12-29T22:45:07.852Z,100.00
2022-12-29T22:47:35.600Z,100.00
2022-12-29T22:50:02.979Z,100.00
2022-12-29T22:52:30.213Z,100.00
2022-12-29T22:55:01.702Z,100.00
2022-12-29T22:57:32.236Z,100.00
2022-12-29T22:59:59.051Z,100.00
2022-12-29T23:02:26.606Z,100.00
2022-12-29T23:05:09.483Z,100.00
2022-12-29T23:07:37.285Z,100.00
2022-12-29T23:10:05.938Z,100.00
2022-12-29T23:12:33.377Z,100.00
2022-12-29T23:15:00.219Z,100.00
2022-12-29T23:17:28.833Z,100.00
2022-12-29T23:19:55.695Z,100.00
2022-12-29T23:22:23.275Z,100.00
2022-12-29T23:24:50.773Z,100.00
2022-12-29T23:27:18.155Z,100.00
2022-12-29T23:29:45.002Z,100.00
2022-12-29T23:32:12.355Z,100.00
2022-12-29T23:34:39.193Z,100.00
2022-12-29T23:37:06.757Z,100.00
2022-12-29T23:39:33.885Z,100.00
2022-12-29T23:42:00.990Z,100.00
2022-12-29T23:44:27.813Z,100.00
2022-12-29T23:46:55.336Z,100.00
2022-12-29T23:49:23.090Z,100.00
2022-12-29T23:51:50.207Z,100.00
2022-12-29T23:54:17.073Z,100.00
2022-12-29T23:56:43.919Z,100.00
2022-12-29T23:59:10.733Z,100.00
